createdAt,value
2018-08-22T00:04:12.406Z,97181.63
2018-08-22T00:09:09.655Z,97165.55
2018-08-22T00:14:04.416Z,97167.17
2018-08-22T00:18:59.123Z,97167.38
2018-08-22T00:23:55.172Z,97165.50
2018-08-22T00:28:49.820Z,97163.64
2018-08-22T00:33:44.983Z,97162.53
2018-08-22T00:38:39.660Z,97162.27
2018-08-22T00:43:34.293Z,97168.27
2018-08-22T00:48:28.919Z,97160.15
2018-08-22T00:53:23.679Z,97159.80
2018-08-22T00:58:18.320Z,97162.55
2018-08-22T01:03:13.060Z,97155.58
2018-08-22T01:08:07.677Z,97154.00
2018-08-22T01:13:02.447Z,97157.16
2018-08-22T01:17:57.123Z,97154.59
2018-08-22T01:22:51.811Z,97146.94
2018-08-22T01:27:46.819Z,97144.89
2018-08-22T01:32:41.588Z,97148.19
2018-08-22T01:37:36.243Z,97148.31
2018-08-22T01:42:30.936Z,97150.22
2018-08-22T01:47:25.661Z,97151.00
2018-08-22T01:52:21.266Z,97144.74
2018-08-22T01:57:15.934Z,97151.04
2018-08-22T02:02:10.544Z,97147.83
2018-08-22T02:07:05.350Z,97154.50
2018-08-22T02:11:59.992Z,97146.30
2018-08-22T02:16:54.628Z,97149.56
2018-08-22T02:21:49.304Z,97151.37
2018-08-22T02:26:44.088Z,97143.91
2018-08-22T02:31:38.748Z,97147.41
2018-08-22T02:36:33.566Z,97150.28
2018-08-22T02:41:28.246Z,97152.52
2018-08-22T02:46:23.060Z,97149.87
2018-08-22T02:51:17.771Z,97148.51
2018-08-22T02:56:12.431Z,97159.10
2018-08-22T03:01:07.082Z,97154.09
2018-08-22T03:06:01.804Z,97155.47
2018-08-22T03:10:56.460Z,97159.28
2018-08-22T03:15:51.135Z,97161.45
2018-08-22T03:20:46.051Z,97165.66
2018-08-22T03:25:40.880Z,97159.52
2018-08-22T03:30:35.523Z,97165.97
2018-08-22T03:35:30.203Z,97163.31
2018-08-22T03:40:24.949Z,97166.78
2018-08-22T03:45:19.574Z,97170.05
2018-08-22T03:50:14.240Z,97175.30
2018-08-22T03:55:09.075Z,97179.35
2018-08-22T04:00:03.782Z,97179.41
2018-08-22T04:04:58.472Z,97183.44
2018-08-22T04:09:53.224Z,97188.62
2018-08-22T04:14:47.884Z,97189.45
2018-08-22T04:19:42.572Z,97190.66
2018-08-22T04:24:37.307Z,97194.32
2018-08-22T04:29:32.552Z,97201.93
2018-08-22T04:34:27.275Z,97203.41
2018-08-22T04:39:21.973Z,97206.07
2018-08-22T04:44:16.681Z,97204.27
2018-08-22T04:49:11.405Z,97205.77
2018-08-22T04:54:06.149Z,97208.05
2018-08-22T04:59:00.991Z,97215.06
2018-08-22T05:03:55.842Z,97219.02
2018-08-22T05:08:50.554Z,97215.70
2018-08-22T05:13:45.247Z,97213.95
2018-08-22T05:18:40.001Z,97219.95
2018-08-22T05:23:34.783Z,97217.98
2018-08-22T05:28:29.526Z,97226.61
2018-08-22T05:33:24.305Z,97218.56
2018-08-22T05:38:18.997Z,97222.05
2018-08-22T05:43:13.735Z,97231.09
2018-08-22T05:48:08.484Z,97236.61
2018-08-22T05:53:03.531Z,97248.74
2018-08-22T05:57:58.236Z,97250.03
2018-08-22T06:02:52.985Z,97242.70
2018-08-22T06:07:47.647Z,97248.17
2018-08-22T06:12:42.350Z,97244.60
2018-08-22T06:17:37.256Z,97242.13
2018-08-22T06:22:33.018Z,97245.36
2018-08-22T06:27:27.692Z,97242.21
2018-08-22T06:32:22.401Z,97244.83
2018-08-22T06:37:17.111Z,97248.08
2018-08-22T06:42:11.913Z,97246.07
2018-08-22T06:47:06.672Z,97240.30
2018-08-22T06:52:01.327Z,97237.45
2018-08-22T06:56:56.023Z,97234.75
2018-08-22T07:01:50.758Z,97234.28
2018-08-22T07:06:45.543Z,97241.37
2018-08-22T07:11:40.234Z,97233.77
2018-08-22T07:16:34.952Z,97235.40
2018-08-22T07:21:29.684Z,97235.14
2018-08-22T07:26:24.348Z,97235.92
2018-08-22T07:31:19.000Z,97229.92
2018-08-22T07:36:13.675Z,97233.52
2018-08-22T07:41:08.599Z,97233.48
2018-08-22T07:46:03.496Z,97230.56
2018-08-22T07:50:58.218Z,97226.44
2018-08-22T07:55:52.953Z,97233.27
2018-08-22T08:00:47.661Z,97233.86
2018-08-22T08:05:42.383Z,97231.94
2018-08-22T08:10:37.771Z,97227.34
2018-08-22T08:15:32.444Z,97225.63
2018-08-22T08:20:27.139Z,97221.94
2018-08-22T08:25:21.859Z,97222.43
2018-08-22T08:30:16.660Z,97224.38
2018-08-22T08:35:11.255Z,97220.88
2018-08-22T08:40:06.109Z,97223.48
2018-08-22T08:45:00.988Z,97217.95
2018-08-22T08:49:55.734Z,97218.84
2018-08-22T08:54:50.849Z,97221.33
2018-08-22T08:59:45.485Z,97212.92
2018-08-22T09:04:40.224Z,97207.51
2018-08-22T09:09:34.922Z,97210.84
2018-08-22T09:14:30.447Z,97206.59
2018-08-22T09:19:25.166Z,97205.16
2018-08-22T09:24:19.830Z,97195.80
2018-08-22T09:29:14.387Z,97191.95
2018-08-22T09:34:09.075Z,97184.91
2018-08-22T09:39:04.689Z,97185.32
2018-08-22T09:43:59.312Z,97186.58
2018-08-22T09:48:53.976Z,97169.98
2018-08-22T09:53:48.642Z,97176.47
2018-08-22T09:58:43.308Z,97169.88
2018-08-22T10:03:54.081Z,97163.06
2018-08-22T10:08:48.756Z,97159.28
2018-08-22T10:13:43.615Z,97154.88
2018-08-22T10:18:38.241Z,97153.20
2018-08-22T10:23:33.005Z,97149.97
2018-08-22T10:28:27.671Z,97142.58
2018-08-22T10:33:28.924Z,97134.03
2018-08-22T10:38:23.562Z,97128.66
2018-08-22T10:43:18.201Z,97126.93
2018-08-22T10:48:12.869Z,97118.05
2018-08-22T10:53:08.296Z,97118.41
2018-08-22T10:58:04.560Z,97117.41
2018-08-22T11:02:59.255Z,97115.80
2018-08-22T11:07:53.906Z,97114.67
2018-08-22T11:12:49.185Z,97109.61
2018-08-22T11:17:43.879Z,97108.17
2018-08-22T11:22:55.220Z,97103.23
2018-08-22T11:28:06.632Z,97095.41
2018-08-22T11:33:18.047Z,97092.71
2018-08-22T11:38:12.708Z,97091.74
2018-08-22T11:43:07.402Z,97091.83
2018-08-22T11:48:02.072Z,97082.54
2018-08-22T11:52:56.691Z,97077.48
2018-08-22T11:57:51.437Z,97076.48
2018-08-22T12:02:46.163Z,97070.62
2018-08-22T12:07:40.959Z,97062.86
2018-08-22T12:12:36.101Z,97059.23
2018-08-22T12:17:30.827Z,97063.48
2018-08-22T12:22:26.063Z,97053.03
2018-08-22T12:27:20.756Z,97049.02
2018-08-22T12:32:15.511Z,97047.86
2018-08-22T12:37:10.169Z,97044.83
2018-08-22T12:42:04.887Z,97045.77
2018-08-22T12:46:59.495Z,97041.88
2018-08-22T12:51:54.172Z,97044.58
2018-08-22T12:56:48.749Z,97038.49
2018-08-22T13:01:43.764Z,97033.27
2018-08-22T13:06:38.539Z,97031.62
2018-08-22T13:11:33.176Z,97022.13
2018-08-22T13:16:27.884Z,97015.67
2018-08-22T13:21:22.572Z,97011.41
2018-08-22T13:26:17.213Z,97004.85
2018-08-22T13:31:11.828Z,96989.87
2018-08-22T13:36:06.629Z,96989.84
2018-08-22T13:41:01.324Z,96985.70
2018-08-22T13:45:56.097Z,96978.11
2018-08-22T13:50:50.729Z,96970.73
2018-08-22T13:55:45.334Z,96959.13
2018-08-22T14:00:40.216Z,96961.43
2018-08-22T14:05:35.050Z,96958.82
2018-08-22T14:10:29.772Z,96954.00
2018-08-22T14:15:24.476Z,96953.75
2018-08-22T14:20:19.228Z,96950.64
2018-08-22T14:25:13.938Z,96944.25
2018-08-22T14:30:08.808Z,96938.68
2018-08-22T14:35:03.532Z,96926.84
2018-08-22T14:39:58.252Z,96922.55
2018-08-22T14:44:52.933Z,96921.14
2018-08-22T14:49:47.541Z,96918.09
2018-08-22T14:54:42.204Z,96913.59
2018-08-22T14:59:36.900Z,96908.27
2018-08-22T15:04:31.774Z,96906.63
2018-08-22T15:09:27.248Z,96901.85
2018-08-22T15:14:21.932Z,96888.42
2018-08-22T15:19:16.711Z,96895.62
2018-08-22T15:24:13.336Z,96892.11
2018-08-22T15:29:08.409Z,96888.36
2018-08-22T15:34:03.098Z,96887.80
2018-08-22T15:38:57.919Z,96884.89
2018-08-22T15:43:52.497Z,96881.77
2018-08-22T15:48:47.217Z,96880.95
2018-08-22T15:53:42.024Z,96878.66
2018-08-22T15:58:36.826Z,96875.31
2018-08-22T16:03:31.635Z,96869.14
2018-08-22T16:08:27.823Z,96865.98
2018-08-22T16:13:30.084Z,96870.86
2018-08-22T16:18:24.836Z,96872.61
2018-08-22T16:23:19.513Z,96870.94
2018-08-22T16:28:14.323Z,96870.38
2018-08-22T16:33:09.629Z,96864.31
2018-08-22T16:38:07.767Z,96867.50
2018-08-22T16:43:02.657Z,96867.41
2018-08-22T16:47:57.459Z,96866.05
2018-08-22T16:52:52.376Z,96866.41
2018-08-22T16:57:47.746Z,96858.34
2018-08-22T17:02:42.790Z,96861.52
2018-08-22T17:07:39.314Z,96862.32
2018-08-22T17:12:43.119Z,96860.52
2018-08-22T17:17:37.976Z,96864.78
2018-08-22T17:22:33.076Z,96853.69
2018-08-22T17:27:27.976Z,96849.73
2018-08-22T17:32:22.720Z,96854.77
2018-08-22T17:37:17.482Z,96848.41
2018-08-22T17:42:12.204Z,96847.70
2018-08-22T17:47:07.208Z,96848.91
2018-08-22T17:52:05.976Z,96851.26
2018-08-22T17:57:16.844Z,96849.94
2018-08-22T18:02:11.594Z,96862.11
2018-08-22T18:07:06.382Z,96865.72
2018-08-22T18:12:01.313Z,96872.86
2018-08-22T18:17:00.101Z,96886.58
2018-08-22T18:21:55.070Z,96898.41
2018-08-22T18:26:50.476Z,96909.11
2018-08-22T18:31:45.194Z,96901.56
2018-08-22T18:36:40.769Z,96909.11
2018-08-22T18:41:35.609Z,96912.47
2018-08-22T18:46:30.372Z,96922.12
2018-08-22T18:51:25.091Z,96932.42
2018-08-22T18:56:21.956Z,96934.72
2018-08-22T19:01:17.198Z,96935.46
2018-08-22T19:06:11.941Z,96943.16
2018-08-22T19:11:07.030Z,96958.47
2018-08-22T19:16:03.267Z,96955.85
2018-08-22T19:21:00.200Z,96969.82
2018-08-22T19:25:55.398Z,96968.92
2018-08-22T19:30:50.140Z,96971.72
2018-08-22T19:35:46.696Z,96976.83
2018-08-22T19:40:41.452Z,96974.63
2018-08-22T19:45:36.890Z,96977.00
2018-08-22T19:50:32.343Z,96978.86
2018-08-22T19:55:27.155Z,96976.22
2018-08-22T20:00:21.925Z,96977.55
2018-08-22T20:05:16.856Z,96977.58
2018-08-22T20:10:11.873Z,96973.00
2018-08-22T20:15:07.301Z,96975.07
2018-08-22T20:20:02.057Z,96972.69
2018-08-22T20:25:00.563Z,96977.73
2018-08-22T20:30:04.401Z,96980.41
2018-08-22T20:35:00.622Z,96979.28
2018-08-22T20:40:00.555Z,96983.94
2018-08-22T20:44:55.328Z,96990.70
2018-08-22T20:49:50.554Z,96998.53
2018-08-22T20:54:48.660Z,97004.50
2018-08-22T20:59:43.392Z,97002.93
2018-08-22T21:04:38.216Z,97011.88
2018-08-22T21:09:32.982Z,97005.92
2018-08-22T21:14:29.658Z,97014.98
2018-08-22T21:19:24.460Z,97019.45
2018-08-22T21:24:19.207Z,97014.66
2018-08-22T21:29:14.181Z,97009.34
2018-08-22T21:34:15.111Z,97003.42
2018-08-22T21:39:15.040Z,96992.78
2018-08-22T21:44:09.960Z,96997.11
2018-08-22T21:49:10.069Z,96998.61
2018-08-22T21:54:04.819Z,97003.09
2018-08-22T21:58:59.564Z,97002.93
2018-08-22T22:03:54.280Z,97010.36
2018-08-22T22:08:49.092Z,97015.81
2018-08-22T22:13:43.853Z,97021.01
2018-08-22T22:18:38.652Z,97027.50
2018-08-22T22:23:33.541Z,97041.34
2018-08-22T22:28:32.306Z,97034.88
2018-08-22T22:33:27.027Z,97029.20
2018-08-22T22:38:21.727Z,97032.70
2018-08-22T22:43:16.426Z,97036.91
2018-08-22T22:48:11.265Z,97039.77
2018-08-22T22:53:06.789Z,97035.08
2018-08-22T22:58:02.837Z,97030.41
2018-08-22T23:03:02.820Z,97030.77
2018-08-22T23:07:57.866Z,97035.03
2018-08-22T23:12:54.201Z,97038.22
2018-08-22T23:17:51.608Z,97045.22
2018-08-22T23:22:46.366Z,97040.00
2018-08-22T23:27:41.849Z,97042.89
2018-08-22T23:32:37.926Z,97052.73
2018-08-22T23:42:38.889Z,97054.84
2018-08-22T23:47:33.592Z,97054.43
2018-08-22T23:52:34.940Z,97047.45
2018-08-22T23:57:30.094Z,97056.18
